createdAt,value
2022-10-21T00:04:14.185Z,11.67
2022-10-21T00:09:15.050Z,11.47
2022-10-21T00:14:15.873Z,11.33
2022-10-21T00:19:16.680Z,11.33
2022-10-21T00:24:17.756Z,11.51
2022-10-21T00:29:18.632Z,11.31
2022-10-21T00:34:20.599Z,11.31
2022-10-21T00:39:21.352Z,11.32
2022-10-21T00:44:22.153Z,11.27
2022-10-21T00:49:39.852Z,11.22
2022-10-21T00:54:42.843Z,11.29
2022-10-21T00:59:49.542Z,11.29
2022-10-21T01:04:53.365Z,11.34
2022-10-21T01:09:54.134Z,11.39
2022-10-21T01:14:59.424Z,11.48
2022-10-21T01:20:22.654Z,11.57
2022-10-21T01:25:40.158Z,11.71
2022-10-21T01:30:48.917Z,11.71
2022-10-21T01:36:41.500Z,11.74
2022-10-21T01:41:53.907Z,11.78
2022-10-21T01:47:17.190Z,11.83
2022-10-21T01:52:18.212Z,11.86
2022-10-21T01:57:21.944Z,11.88
2022-10-21T02:02:29.009Z,12.04
2022-10-21T02:07:29.804Z,12.04
2022-10-21T02:12:33.162Z,12.01
2022-10-21T02:17:37.553Z,12.04
2022-10-21T02:22:41.653Z,12.00
2022-10-21T02:27:42.969Z,11.88
2022-10-21T02:32:55.779Z,11.87
2022-10-21T02:38:19.668Z,11.89
2022-10-21T02:43:31.580Z,11.89
2022-10-21T02:48:33.789Z,11.84
2022-10-21T02:53:35.288Z,11.84
2022-10-21T02:58:37.711Z,11.88
2022-10-21T03:03:38.456Z,11.96
2022-10-21T03:08:39.384Z,12.05
2022-10-21T03:13:40.206Z,12.06
2022-10-21T03:18:40.969Z,12.12
2022-10-21T03:23:41.699Z,12.20
2022-10-21T03:28:42.630Z,12.19
2022-10-21T03:33:43.378Z,12.19
2022-10-21T03:38:44.138Z,12.14
2022-10-21T03:43:45.035Z,12.22
2022-10-21T03:48:45.805Z,12.26
2022-10-21T03:53:46.535Z,12.16
2022-10-21T03:58:47.610Z,12.21
2022-10-21T04:03:48.407Z,12.19
2022-10-21T04:08:49.444Z,12.19
2022-10-21T04:13:50.292Z,12.19
2022-10-21T04:18:51.348Z,12.16
2022-10-21T04:23:52.111Z,12.13
2022-10-21T04:28:52.967Z,12.11
2022-10-21T04:33:53.733Z,12.20
2022-10-21T04:38:54.577Z,12.10
2022-10-21T04:43:55.330Z,12.08
2022-10-21T04:48:56.093Z,12.04
2022-10-21T04:53:56.965Z,12.05
2022-10-21T04:58:58.043Z,12.04
2022-10-21T05:03:58.768Z,12.08
2022-10-21T05:08:59.644Z,12.03
2022-10-21T05:14:00.472Z,12.03
2022-10-21T05:19:01.284Z,12.03
2022-10-21T05:24:02.231Z,12.05
2022-10-21T05:29:03.154Z,12.02
2022-10-21T05:34:03.899Z,11.99
2022-10-21T05:39:07.957Z,12.00
2022-10-21T05:44:08.703Z,12.03
2022-10-21T05:49:09.754Z,12.02
2022-10-21T05:54:10.545Z,12.03
2022-10-21T05:59:11.518Z,12.01
2022-10-21T06:04:12.258Z,12.03
2022-10-21T06:09:13.187Z,11.97
2022-10-21T06:14:13.925Z,12.02
2022-10-21T06:19:14.883Z,11.96
2022-10-21T06:24:15.717Z,12.02
2022-10-21T06:29:17.564Z,11.92
2022-10-21T06:39:19.112Z,12.07
2022-10-21T06:44:19.864Z,11.94
2022-10-21T06:49:20.829Z,11.97
2022-10-21T06:54:21.572Z,11.97
2022-10-21T06:59:22.759Z,12.13
2022-10-21T07:04:23.496Z,12.29
2022-10-21T07:09:24.427Z,12.33
2022-10-21T07:14:25.756Z,12.41
2022-10-21T07:19:26.580Z,12.54
2022-10-21T07:24:27.407Z,12.49
2022-10-21T07:29:28.293Z,12.49
2022-10-21T07:34:29.041Z,12.63
2022-10-21T07:39:30.110Z,12.79
2022-10-21T07:44:30.841Z,12.91
2022-10-21T07:49:31.667Z,12.96
2022-10-21T07:54:32.431Z,13.05
2022-10-21T07:59:33.377Z,12.93
2022-10-21T08:04:34.146Z,12.99
2022-10-21T08:09:35.004Z,12.93
2022-10-21T08:14:35.745Z,12.90
2022-10-21T08:19:36.540Z,12.97
2022-10-21T08:24:39.973Z,12.90
2022-10-21T08:29:43.291Z,13.00
2022-10-21T08:34:44.267Z,12.96
2022-10-21T08:39:46.064Z,12.94
2022-10-21T08:44:56.094Z,12.90
2022-10-21T08:50:13.253Z,12.99
2022-10-21T08:55:23.555Z,12.98
2022-10-21T09:00:32.248Z,12.98
2022-10-21T09:06:13.272Z,13.00
2022-10-21T09:11:40.118Z,13.01
2022-10-21T09:17:20.542Z,13.05
2022-10-21T09:22:58.548Z,13.07
2022-10-21T09:28:08.706Z,13.07
2022-10-21T09:33:22.663Z,13.06
2022-10-21T09:38:29.235Z,12.84
2022-10-21T09:43:30.649Z,12.94
2022-10-21T09:48:55.051Z,12.79
2022-10-21T09:54:21.653Z,12.89
2022-10-21T09:59:26.965Z,12.77
2022-10-21T10:04:34.704Z,12.74
2022-10-21T10:09:38.302Z,12.69
2022-10-21T10:14:44.926Z,12.70
2022-10-21T10:20:14.303Z,12.70
2022-10-21T10:25:21.992Z,12.74
2022-10-21T10:30:26.390Z,12.80
2022-10-21T10:35:33.087Z,12.76
2022-10-21T10:40:41.357Z,12.83
2022-10-21T10:45:55.960Z,12.80
2022-10-21T10:50:57.557Z,12.93
2022-10-21T10:57:34.001Z,13.00
2022-10-21T11:03:04.706Z,13.07
2022-10-21T11:08:15.071Z,13.05
2022-10-21T11:13:21.353Z,13.14
2022-10-21T11:18:37.017Z,13.24
2022-10-21T11:24:04.427Z,13.42
2022-10-21T11:29:43.359Z,13.54
2022-10-21T11:37:32.143Z,13.70
2022-10-21T11:42:46.123Z,14.16
2022-10-21T11:48:06.216Z,14.61
2022-10-21T11:53:55.287Z,14.80
2022-10-21T11:59:22.999Z,14.92
2022-10-21T12:04:34.571Z,15.23
2022-10-21T12:09:49.437Z,15.65
2022-10-21T12:14:59.441Z,16.09
2022-10-21T12:20:03.781Z,15.73
2022-10-21T12:28:01.157Z,16.01
2022-10-21T12:33:38.167Z,16.94
2022-10-21T12:38:51.272Z,16.96
2022-10-21T12:44:47.374Z,16.66
2022-10-21T12:50:23.919Z,16.74
2022-10-21T12:55:27.346Z,16.57
2022-10-21T13:00:52.734Z,16.39
2022-10-21T13:06:01.400Z,15.92
2022-10-21T13:11:13.071Z,15.51
2022-10-21T13:16:47.241Z,15.31
2022-10-21T13:21:48.630Z,15.23
2022-10-21T13:26:53.529Z,15.19
2022-10-21T13:35:31.437Z,15.11
2022-10-21T13:40:44.330Z,15.11
2022-10-21T13:45:48.964Z,15.23
2022-10-21T13:50:52.265Z,15.47
2022-10-21T13:56:04.898Z,15.34
2022-10-21T14:01:19.402Z,15.38
2022-10-21T14:06:35.170Z,15.57
2022-10-21T14:11:45.238Z,15.69
2022-10-21T14:17:08.001Z,15.58
2022-10-21T14:22:18.401Z,15.46
2022-10-21T14:27:24.846Z,15.39
2022-10-21T14:32:26.777Z,15.53
2022-10-21T14:37:34.647Z,15.47
2022-10-21T14:42:35.435Z,15.46
2022-10-21T14:47:36.597Z,15.62
2022-10-21T14:52:42.346Z,15.59
2022-10-21T14:57:52.837Z,15.63
2022-10-21T15:02:55.437Z,15.58
2022-10-21T15:14:44.848Z,15.61
2022-10-21T15:19:51.937Z,15.40
2022-10-21T15:24:58.528Z,15.32
2022-10-21T15:30:12.980Z,15.46
2022-10-21T15:35:16.483Z,15.34
2022-10-21T15:40:18.775Z,15.30
2022-10-21T15:45:22.294Z,15.14
2022-10-21T15:50:25.803Z,15.18
2022-10-21T15:55:26.575Z,15.30
2022-10-21T16:00:27.715Z,15.13
2022-10-21T16:05:29.153Z,15.07
2022-10-21T16:10:40.981Z,14.98
2022-10-21T16:15:41.832Z,14.88
2022-10-21T16:20:43.161Z,14.85
2022-10-21T16:25:43.919Z,14.88
2022-10-21T16:30:44.765Z,14.82
2022-10-21T16:35:47.902Z,14.82
2022-10-21T16:40:48.664Z,14.71
2022-10-21T16:45:49.493Z,14.78
2022-10-21T16:50:50.364Z,14.76
2022-10-21T16:55:51.111Z,14.71
2022-10-21T17:00:52.094Z,14.72
2022-10-21T17:05:53.218Z,14.76
2022-10-21T17:10:53.982Z,14.80
2022-10-21T17:15:54.834Z,14.92
2022-10-21T17:20:55.841Z,14.84
2022-10-21T17:25:56.788Z,14.82
2022-10-21T17:30:57.660Z,14.76
2022-10-21T17:35:58.410Z,14.86
2022-10-21T17:40:59.182Z,14.84
2022-10-21T17:45:59.951Z,14.75
2022-10-21T17:51:01.574Z,14.61
2022-10-21T17:56:05.811Z,14.59
2022-10-21T18:01:08.849Z,14.58
2022-10-21T18:06:12.235Z,14.45
2022-10-21T18:11:15.615Z,14.50
2022-10-21T18:16:21.149Z,14.41
2022-10-21T18:21:22.761Z,14.52
2022-10-21T18:26:26.880Z,14.33
2022-10-21T18:31:30.377Z,14.32
2022-10-21T18:36:32.038Z,14.14
2022-10-21T18:41:33.349Z,14.18
2022-10-21T18:46:36.600Z,14.13
2022-10-21T18:51:37.493Z,14.12
2022-10-21T18:56:40.308Z,14.21
2022-10-21T19:01:41.177Z,14.11
2022-10-21T19:06:45.270Z,14.05
2022-10-21T19:11:46.819Z,14.13
2022-10-21T19:16:48.319Z,14.18
2022-10-21T19:21:49.117Z,14.14
2022-10-21T19:26:53.371Z,14.11
2022-10-21T19:31:55.783Z,14.13
2022-10-21T19:36:57.793Z,14.12
2022-10-21T19:41:58.904Z,14.19
2022-10-21T19:46:59.697Z,14.27
2022-10-21T19:52:00.488Z,14.15
2022-10-21T19:57:01.268Z,14.15
2022-10-21T20:02:02.206Z,14.08
2022-10-21T20:07:02.987Z,14.10
2022-10-21T20:12:03.748Z,14.15
2022-10-21T20:17:04.530Z,14.04
2022-10-21T20:22:05.993Z,14.10
2022-10-21T20:27:07.276Z,14.15
2022-10-21T20:32:08.401Z,14.18
2022-10-21T20:37:09.204Z,14.28
2022-10-21T20:42:09.975Z,14.24
2022-10-21T20:47:10.735Z,14.20
2022-10-21T20:52:11.487Z,14.24
2022-10-21T20:57:12.308Z,14.08
2022-10-21T21:02:13.228Z,13.94
2022-10-21T21:07:14.027Z,13.90
2022-10-21T21:12:14.942Z,13.89
2022-10-21T21:17:15.694Z,13.94
2022-10-21T21:22:16.662Z,13.96
2022-10-21T21:27:18.109Z,13.92
2022-10-21T21:32:19.042Z,13.89
2022-10-21T21:37:21.404Z,13.80
2022-10-21T21:42:22.148Z,13.67
2022-10-21T21:47:22.912Z,13.33
2022-10-21T21:52:25.082Z,13.34
2022-10-21T21:57:28.048Z,13.22
2022-10-21T22:02:29.534Z,13.25
2022-10-21T22:07:32.189Z,13.36
2022-10-21T22:12:32.954Z,13.30
2022-10-21T22:17:33.789Z,13.24
2022-10-21T22:22:35.289Z,13.25
2022-10-21T22:27:37.428Z,13.23
2022-10-21T22:32:38.831Z,13.16
2022-10-21T22:37:39.816Z,13.23
2022-10-21T22:42:40.868Z,13.28
2022-10-21T22:47:42.071Z,13.34
2022-10-21T22:52:43.439Z,13.37
2022-10-21T22:57:44.553Z,13.35
2022-10-21T23:02:45.357Z,13.27
2022-10-21T23:07:46.431Z,13.33
2022-10-21T23:12:47.747Z,13.31
2022-10-21T23:17:48.514Z,13.35
2022-10-21T23:22:49.462Z,13.36
2022-10-21T23:27:50.527Z,13.44
2022-10-21T23:32:51.482Z,13.59
2022-10-21T23:37:52.231Z,13.50
2022-10-21T23:42:53.386Z,13.49
2022-10-21T23:47:54.180Z,13.54
2022-10-21T23:52:55.502Z,13.50
2022-10-21T23:57:56.790Z,13.36
